createdAt,value
2023-02-15T00:01:38.596Z,27.00
2023-02-15T00:04:07.452Z,26.90
2023-02-15T00:09:03.806Z,25.13
2023-02-15T00:11:50.731Z,25.58
2023-02-15T00:14:21.651Z,29.33
2023-02-15T00:16:51.072Z,27.40
2023-02-15T00:19:20.846Z,26.03
2023-02-15T00:21:50.034Z,26.13
2023-02-15T00:24:20.264Z,27.77
2023-02-15T00:26:48.953Z,27.97
2023-02-15T00:29:19.943Z,27.13
2023-02-15T00:31:48.230Z,27.27
2023-02-15T00:34:18.526Z,27.30
2023-02-15T00:36:46.932Z,27.60
2023-02-15T00:39:15.550Z,28.27
2023-02-15T00:41:43.429Z,27.52
2023-02-15T00:44:11.449Z,27.50
2023-02-15T00:46:40.607Z,27.45
2023-02-15T00:49:08.369Z,28.03
2023-02-15T00:51:36.113Z,27.57
2023-02-15T00:54:03.799Z,28.03
2023-02-15T00:56:31.477Z,29.90
2023-02-15T00:58:59.110Z,29.03
2023-02-15T01:01:26.802Z,26.90
2023-02-15T01:03:55.979Z,26.90
2023-02-15T01:06:23.670Z,27.20
2023-02-15T01:08:51.384Z,26.67
2023-02-15T01:11:22.987Z,27.40
2023-02-15T01:13:51.594Z,26.40
2023-02-15T01:16:19.635Z,27.13
2023-02-15T01:18:47.544Z,29.77
2023-02-15T01:21:18.488Z,27.98
2023-02-15T01:23:46.726Z,27.97
2023-02-15T01:26:15.101Z,28.08
2023-02-15T01:28:42.832Z,28.70
2023-02-15T01:31:12.461Z,26.93
2023-02-15T01:33:42.343Z,26.67
2023-02-15T01:36:09.942Z,27.70
2023-02-15T01:38:40.781Z,27.77
2023-02-15T01:41:24.830Z,26.53
2023-02-15T01:43:54.799Z,26.03
2023-02-15T01:46:28.863Z,25.20
2023-02-15T01:49:01.574Z,21.93
2023-02-15T01:51:32.915Z,24.03
2023-02-15T01:54:07.366Z,24.50
2023-02-15T01:56:38.026Z,22.83
2023-02-15T01:59:10.200Z,25.30
2023-02-15T02:01:38.737Z,23.30
2023-02-15T02:04:14.062Z,23.83
2023-02-15T02:06:42.160Z,23.33
2023-02-15T02:09:11.570Z,24.33
2023-02-15T02:11:41.310Z,24.87
2023-02-15T02:14:09.243Z,26.20
2023-02-15T02:16:45.058Z,22.00
2023-02-15T02:19:39.214Z,22.00
2023-02-15T02:22:51.255Z,25.17
2023-02-15T02:25:38.645Z,25.67
2023-02-15T02:28:24.325Z,26.73
2023-02-15T02:31:14.702Z,23.83
2023-02-15T02:33:52.919Z,22.27
2023-02-15T02:36:26.932Z,24.15
2023-02-15T02:39:08.303Z,26.67
2023-02-15T02:41:44.915Z,28.90
2023-02-15T02:44:18.479Z,26.10
2023-02-15T02:46:52.753Z,23.60
2023-02-15T02:57:06.177Z,24.63
2023-02-15T02:59:38.836Z,26.73
2023-02-15T03:02:13.911Z,25.57
2023-02-15T03:04:45.680Z,25.50
2023-02-15T03:07:17.156Z,25.30
2023-02-15T03:09:48.393Z,25.90
2023-02-15T03:12:21.410Z,26.20
2023-02-15T03:14:52.858Z,25.13
2023-02-15T03:17:24.436Z,25.93
2023-02-15T03:19:56.597Z,24.90
2023-02-15T03:22:30.600Z,24.00
2023-02-15T03:25:04.160Z,24.00
2023-02-15T03:27:37.052Z,24.73
2023-02-15T03:30:07.776Z,25.63
2023-02-15T03:32:39.358Z,27.03
2023-02-15T03:35:08.123Z,27.83
2023-02-15T03:37:39.452Z,25.58
2023-02-15T03:40:26.423Z,25.03
2023-02-15T03:43:02.648Z,26.40
2023-02-15T03:45:35.174Z,26.20
2023-02-15T03:48:04.183Z,28.47
2023-02-15T03:50:51.010Z,25.87
2023-02-15T03:53:22.826Z,25.57
2023-02-15T03:55:51.349Z,26.20
2023-02-15T03:58:37.718Z,25.48
2023-02-15T04:01:29.306Z,28.33
2023-02-15T04:04:01.276Z,27.63
2023-02-15T04:06:29.059Z,26.57
2023-02-15T04:09:14.550Z,26.80
2023-02-15T04:11:42.270Z,28.07
2023-02-15T04:14:25.312Z,26.57
2023-02-15T04:16:53.109Z,26.10
2023-02-15T04:19:38.616Z,26.30
2023-02-15T04:22:24.004Z,29.63
2023-02-15T04:25:09.368Z,27.07
2023-02-15T04:27:37.480Z,24.97
2023-02-15T04:30:07.759Z,25.63
2023-02-15T04:32:35.537Z,27.43
2023-02-15T04:35:03.631Z,27.03
2023-02-15T04:37:31.447Z,27.20
2023-02-15T04:39:59.456Z,27.07
2023-02-15T04:42:27.435Z,27.52
2023-02-15T04:44:55.701Z,30.63
2023-02-15T04:47:24.844Z,26.00
2023-02-15T04:49:52.502Z,27.13
2023-02-15T04:52:20.228Z,30.27
2023-02-15T04:54:48.006Z,29.10
2023-02-15T04:57:15.771Z,28.83
2023-02-15T04:59:43.440Z,29.13
2023-02-15T05:02:11.166Z,29.87
2023-02-15T05:04:40.274Z,34.67
2023-02-15T05:07:07.971Z,32.37
2023-02-15T05:09:35.726Z,29.97
2023-02-15T05:12:03.375Z,30.43
2023-02-15T05:14:31.084Z,31.67
2023-02-15T05:17:01.879Z,30.03
2023-02-15T05:19:29.689Z,30.80
2023-02-15T05:21:58.676Z,30.87
2023-02-15T05:27:30.696Z,28.60
2023-02-15T05:29:58.436Z,27.53
2023-02-15T05:32:26.432Z,27.73
2023-02-15T05:34:54.219Z,28.05
2023-02-15T05:37:23.249Z,29.20
2023-02-15T05:39:50.890Z,28.10
2023-02-15T05:42:18.507Z,29.20
2023-02-15T05:44:46.552Z,30.33
2023-02-15T05:47:14.253Z,28.75
2023-02-15T05:49:41.958Z,28.70
2023-02-15T05:52:09.593Z,30.07
2023-02-15T05:54:38.623Z,29.27
2023-02-15T05:57:06.227Z,30.13
2023-02-15T05:59:33.861Z,31.33
2023-02-15T06:02:01.516Z,31.27
2023-02-15T06:04:29.340Z,32.20
2023-02-15T06:06:56.989Z,29.20
2023-02-15T06:09:24.806Z,29.37
2023-02-15T06:11:53.871Z,28.00
2023-02-15T06:14:21.956Z,27.80
2023-02-15T06:16:49.575Z,28.73
2023-02-15T06:19:17.575Z,27.93
2023-02-15T06:21:45.920Z,30.63
2023-02-15T06:24:13.779Z,28.80
2023-02-15T06:26:41.437Z,31.27
2023-02-15T06:29:10.498Z,28.63
2023-02-15T06:31:38.259Z,30.73
2023-02-15T06:34:06.901Z,31.87
2023-02-15T06:36:34.615Z,30.50
2023-02-15T06:39:03.145Z,30.27
2023-02-15T06:41:30.846Z,29.27
2023-02-15T06:43:58.526Z,28.07
2023-02-15T06:46:27.858Z,31.20
2023-02-15T06:48:55.518Z,29.43
2023-02-15T06:51:23.121Z,28.40
2023-02-15T06:53:50.806Z,29.30
2023-02-15T06:56:18.448Z,29.10
2023-02-15T06:58:47.099Z,29.70
2023-02-15T07:01:14.896Z,26.98
2023-02-15T07:03:43.949Z,29.50
2023-02-15T07:06:12.272Z,28.33
2023-02-15T07:08:41.112Z,27.30
2023-02-15T07:14:05.758Z,29.00
2023-02-15T07:16:33.497Z,27.20
2023-02-15T07:19:02.755Z,29.77
2023-02-15T07:21:30.558Z,31.40
2023-02-15T07:23:59.355Z,31.17
2023-02-15T07:26:27.092Z,30.83
2023-02-15T07:28:54.851Z,30.17
2023-02-15T07:31:22.600Z,32.67
2023-02-15T07:33:50.351Z,31.63
2023-02-15T07:36:19.416Z,31.60
2023-02-15T07:38:47.872Z,31.10
2023-02-15T07:41:17.329Z,30.30
2023-02-15T07:43:46.729Z,33.00
2023-02-15T07:46:16.523Z,31.97
2023-02-15T07:48:45.720Z,31.03
2023-02-15T07:51:15.435Z,32.73
2023-02-15T07:53:45.050Z,31.37
2023-02-15T07:56:14.677Z,32.23
2023-02-15T07:58:54.881Z,31.80
2023-02-15T08:01:24.951Z,30.27
2023-02-15T08:03:52.679Z,31.77
2023-02-15T08:06:21.260Z,30.70
2023-02-15T08:08:50.362Z,33.13
2023-02-15T08:11:37.443Z,30.03
2023-02-15T08:14:07.725Z,31.60
2023-02-15T08:16:37.562Z,32.63
2023-02-15T08:19:08.018Z,31.47
2023-02-15T08:21:37.485Z,32.83
2023-02-15T08:24:08.583Z,33.00
2023-02-15T08:26:37.397Z,33.03
2023-02-15T08:29:05.386Z,33.05
2023-02-15T08:31:33.166Z,33.20
2023-02-15T08:34:02.034Z,33.77
2023-02-15T08:36:32.509Z,35.13
2023-02-15T08:39:01.872Z,32.63
2023-02-15T08:41:32.724Z,33.47
2023-02-15T08:44:02.500Z,34.90
2023-02-15T08:46:34.071Z,33.43
2023-02-15T08:49:01.863Z,32.97
2023-02-15T08:51:31.389Z,33.07
2023-02-15T08:54:00.770Z,32.30
2023-02-15T08:56:32.745Z,34.27
2023-02-15T08:59:00.894Z,33.07
2023-02-15T09:01:30.919Z,33.13
2023-02-15T09:04:00.331Z,32.80
2023-02-15T09:06:29.900Z,32.50
2023-02-15T09:08:58.521Z,30.93
2023-02-15T09:11:28.269Z,31.55
2023-02-15T09:13:58.900Z,31.07
2023-02-15T09:16:28.560Z,31.50
2023-02-15T09:18:58.399Z,30.97
2023-02-15T09:21:27.538Z,29.13
2023-02-15T09:23:58.698Z,30.83
2023-02-15T09:26:27.540Z,29.80
2023-02-15T09:31:27.852Z,30.90
2023-02-15T09:33:56.691Z,30.53
2023-02-15T09:36:26.577Z,30.33
2023-02-15T09:38:58.269Z,30.17
2023-02-15T09:41:45.529Z,30.00
2023-02-15T09:44:24.199Z,30.27
2023-02-15T09:47:08.687Z,28.92
2023-02-15T09:49:47.597Z,29.17
2023-02-15T09:52:33.120Z,27.80
2023-02-15T09:55:14.036Z,28.13
2023-02-15T09:57:52.392Z,27.70
2023-02-15T10:00:28.245Z,28.33
2023-02-15T10:03:14.345Z,29.37
2023-02-15T10:05:51.176Z,27.10
2023-02-15T10:09:02.050Z,30.03
2023-02-15T10:11:45.593Z,28.53
2023-02-15T10:14:46.393Z,27.73
2023-02-15T10:17:28.201Z,27.23
2023-02-15T10:20:11.990Z,27.13
2023-02-15T10:22:55.664Z,26.80
2023-02-15T10:25:34.197Z,26.70
2023-02-15T10:28:07.393Z,25.90
2023-02-15T10:30:46.738Z,27.20
2023-02-15T10:33:29.276Z,26.27
2023-02-15T10:36:08.651Z,27.00
2023-02-15T10:38:41.991Z,27.40
2023-02-15T10:41:28.597Z,28.00
2023-02-15T10:44:14.654Z,32.17
2023-02-15T10:46:57.289Z,39.17
2023-02-15T10:49:36.925Z,27.83
2023-02-15T10:52:19.811Z,26.27
2023-02-15T10:54:52.075Z,28.80
2023-02-15T10:57:28.774Z,26.67
2023-02-15T11:00:07.257Z,29.77
2023-02-15T11:02:48.942Z,25.38
2023-02-15T11:05:28.879Z,28.93
2023-02-15T11:08:02.503Z,24.80
2023-02-15T11:10:35.037Z,25.03
2023-02-15T11:13:07.528Z,26.27
2023-02-15T11:15:39.004Z,27.17
2023-02-15T11:18:13.997Z,32.60
2023-02-15T11:20:48.657Z,26.90
2023-02-15T11:23:19.426Z,28.87
2023-02-15T11:25:54.286Z,30.37
2023-02-15T11:28:27.056Z,31.93
2023-02-15T11:30:58.715Z,32.23
2023-02-15T11:33:31.608Z,27.77
2023-02-15T11:36:06.477Z,27.73
2023-02-15T11:38:36.112Z,29.20
2023-02-15T11:41:05.813Z,27.80
2023-02-15T11:43:39.636Z,27.63
2023-02-15T11:46:12.203Z,28.10
2023-02-15T11:48:41.074Z,28.60
2023-02-15T11:53:40.834Z,25.23
2023-02-15T11:56:16.459Z,27.40
2023-02-15T11:58:47.553Z,29.40
2023-02-15T12:01:20.621Z,27.30
2023-02-15T12:03:50.190Z,28.20
2023-02-15T12:06:27.518Z,27.77
2023-02-15T12:09:04.621Z,28.43
2023-02-15T12:11:37.618Z,29.30
2023-02-15T12:14:07.335Z,27.80
2023-02-15T12:16:43.629Z,28.40
2023-02-15T12:19:26.619Z,27.57
2023-02-15T12:21:55.278Z,28.57
2023-02-15T12:24:26.904Z,28.80
2023-02-15T12:27:00.304Z,27.87
2023-02-15T12:29:30.938Z,28.10
2023-02-15T12:32:00.122Z,27.80
2023-02-15T12:34:31.921Z,28.13
2023-02-15T12:37:04.090Z,28.70
2023-02-15T12:39:33.956Z,28.90
2023-02-15T12:42:04.870Z,29.17
2023-02-15T12:44:34.227Z,28.90
2023-02-15T12:47:05.692Z,28.63
2023-02-15T12:49:34.975Z,30.07
2023-02-15T12:52:05.197Z,28.20
2023-02-15T12:54:41.039Z,28.80
2023-02-15T12:57:22.541Z,28.90
2023-02-15T12:59:52.245Z,29.07
2023-02-15T13:02:25.785Z,28.17
2023-02-15T13:04:54.683Z,29.87
2023-02-15T13:07:23.389Z,29.43
2023-02-15T13:12:24.398Z,28.50
2023-02-15T13:14:55.757Z,28.40
2023-02-15T13:17:30.477Z,31.03
2023-02-15T13:20:02.731Z,29.07
2023-02-15T13:22:43.044Z,30.30
2023-02-15T13:25:17.084Z,29.73
2023-02-15T13:27:46.859Z,31.03
2023-02-15T13:30:33.086Z,29.77
2023-02-15T13:33:04.216Z,31.93
2023-02-15T13:35:40.653Z,32.57
2023-02-15T13:38:45.027Z,31.40
2023-02-15T13:41:18.785Z,31.20
2023-02-15T13:43:57.856Z,30.93
2023-02-15T13:46:49.574Z,29.73
2023-02-15T13:49:30.647Z,29.20
2023-02-15T13:52:10.646Z,29.73
2023-02-15T13:55:05.044Z,29.93
2023-02-15T13:57:57.184Z,28.73
2023-02-15T14:00:30.728Z,28.93
2023-02-15T14:03:40.922Z,29.87
2023-02-15T14:06:22.342Z,30.00
2023-02-15T14:09:05.693Z,32.50
2023-02-15T14:11:44.190Z,30.83
2023-02-15T14:14:41.018Z,30.60
2023-02-15T14:17:22.198Z,29.20
2023-02-15T14:19:53.576Z,31.30
2023-02-15T14:22:32.684Z,31.97
2023-02-15T14:25:19.265Z,30.80
2023-02-15T14:27:58.466Z,30.47
2023-02-15T14:30:32.787Z,31.17
2023-02-15T14:33:07.796Z,30.97
2023-02-15T14:35:36.276Z,30.97
2023-02-15T14:38:12.609Z,31.45
2023-02-15T14:41:05.055Z,30.87
2023-02-15T14:43:55.014Z,32.67
2023-02-15T14:46:32.323Z,29.30
2023-02-15T14:49:08.445Z,29.67
2023-02-15T14:52:06.261Z,29.40
2023-02-15T14:54:58.449Z,28.63
2023-02-15T14:57:28.821Z,29.80
2023-02-15T14:59:59.231Z,29.57
2023-02-15T15:02:31.725Z,31.40
2023-02-15T15:05:04.790Z,30.70
2023-02-15T15:07:40.670Z,29.90
2023-02-15T15:10:35.916Z,30.67
2023-02-15T15:13:42.366Z,30.67
2023-02-15T15:16:53.346Z,29.67
2023-02-15T15:20:09.173Z,30.70
2023-02-15T15:22:38.640Z,31.67
2023-02-15T15:25:11.504Z,30.33
2023-02-15T15:27:53.580Z,30.47
2023-02-15T15:31:01.657Z,31.77
2023-02-15T15:34:16.085Z,30.27
2023-02-15T15:37:17.844Z,30.47
2023-02-15T15:40:18.777Z,31.57
2023-02-15T15:43:12.764Z,30.30
2023-02-15T15:46:00.075Z,32.27
2023-02-15T15:48:34.348Z,32.67
2023-02-15T15:51:06.189Z,31.47
2023-02-15T15:53:42.284Z,32.23
2023-02-15T15:56:16.353Z,31.70
2023-02-15T15:58:48.234Z,30.83
2023-02-15T16:01:17.253Z,32.17
2023-02-15T16:03:52.576Z,32.00
2023-02-15T16:06:36.214Z,32.00
2023-02-15T16:09:15.344Z,31.23
2023-02-15T16:11:45.147Z,33.43
2023-02-15T16:14:16.030Z,32.80
2023-02-15T16:16:51.604Z,32.70
2023-02-15T16:19:24.123Z,33.57
2023-02-15T16:21:52.474Z,33.03
2023-02-15T16:24:56.687Z,34.20
2023-02-15T16:27:35.065Z,33.87
2023-02-15T16:30:22.011Z,32.45
2023-02-15T16:32:50.200Z,34.07
2023-02-15T16:35:20.629Z,32.80
2023-02-15T16:37:48.655Z,33.53
2023-02-15T16:40:33.020Z,32.20
2023-02-15T16:43:07.542Z,32.93
2023-02-15T16:45:38.035Z,34.47
2023-02-15T16:48:14.527Z,35.73
2023-02-15T16:50:48.226Z,33.17
2023-02-15T16:53:20.708Z,33.73
2023-02-15T16:55:52.309Z,33.30
2023-02-15T16:58:27.464Z,33.97
2023-02-15T17:00:58.787Z,35.93
2023-02-15T17:03:28.095Z,34.70
2023-02-15T17:05:57.606Z,32.73
2023-02-15T17:08:31.238Z,35.67
2023-02-15T17:11:12.826Z,34.20
2023-02-15T17:14:03.553Z,35.73
2023-02-15T17:16:34.280Z,34.17
2023-02-15T17:19:02.824Z,33.87
2023-02-15T17:21:34.588Z,34.78
2023-02-15T17:24:05.289Z,32.83
2023-02-15T17:26:36.257Z,33.73
2023-02-15T17:29:19.813Z,33.63
2023-02-15T17:31:50.667Z,33.67
2023-02-15T17:34:53.810Z,32.43
2023-02-15T17:37:28.389Z,33.23
2023-02-15T17:39:57.332Z,33.67
2023-02-15T17:42:25.099Z,32.17
2023-02-15T17:44:54.166Z,33.53
2023-02-15T17:47:25.754Z,34.37
2023-02-15T17:49:54.662Z,33.97
2023-02-15T17:52:22.412Z,34.23
2023-02-15T17:55:08.120Z,34.40
2023-02-15T17:57:36.546Z,33.83
2023-02-15T18:00:24.601Z,32.60
2023-02-15T18:03:12.272Z,31.55
2023-02-15T18:05:57.930Z,32.28
2023-02-15T18:08:46.676Z,31.23
2023-02-15T18:11:32.830Z,31.43
2023-02-15T18:14:01.728Z,29.67
2023-02-15T18:16:34.629Z,31.47
2023-02-15T18:19:04.861Z,33.33
2023-02-15T18:21:33.728Z,32.57
2023-02-15T18:24:01.834Z,31.67
2023-02-15T18:26:30.153Z,36.60
2023-02-15T18:28:58.229Z,31.52
2023-02-15T18:31:26.933Z,34.22
2023-02-15T18:33:59.343Z,33.13
2023-02-15T18:36:30.213Z,32.70
2023-02-15T18:38:58.455Z,33.47
2023-02-15T18:41:27.065Z,35.92
2023-02-15T18:43:55.514Z,34.15
2023-02-15T18:46:23.973Z,33.40
2023-02-15T18:48:51.937Z,33.95
2023-02-15T18:51:23.703Z,34.97
2023-02-15T18:53:54.094Z,35.63
2023-02-15T18:56:24.641Z,36.50
2023-02-15T18:58:52.687Z,38.67
2023-02-15T19:01:22.415Z,34.95
2023-02-15T19:03:51.750Z,35.60
2023-02-15T19:06:23.142Z,35.37
2023-02-15T19:08:53.977Z,35.00
2023-02-15T19:11:25.984Z,34.27
2023-02-15T19:13:55.475Z,35.07
2023-02-15T19:16:30.617Z,35.55
2023-02-15T19:18:59.071Z,34.27
2023-02-15T19:21:29.331Z,35.85
2023-02-15T19:24:02.391Z,32.53
2023-02-15T19:26:44.648Z,34.07
2023-02-15T19:29:15.230Z,33.77
2023-02-15T19:31:43.628Z,31.57
2023-02-15T19:34:15.840Z,31.63
2023-02-15T19:36:47.487Z,33.03
2023-02-15T19:39:25.628Z,34.03
2023-02-15T19:41:53.768Z,31.40
2023-02-15T19:44:21.941Z,30.67
2023-02-15T19:46:49.828Z,34.50
2023-02-15T19:49:18.114Z,31.77
2023-02-15T19:51:47.680Z,33.95
2023-02-15T19:54:30.915Z,32.60
2023-02-15T19:56:59.416Z,32.03
2023-02-15T19:59:29.868Z,30.08
2023-02-15T20:01:58.679Z,32.30
2023-02-15T20:07:00.639Z,32.45
2023-02-15T20:09:33.775Z,31.63
2023-02-15T20:12:01.446Z,30.53
2023-02-15T20:14:29.034Z,32.10
2023-02-15T20:16:56.691Z,32.13
2023-02-15T20:19:24.613Z,32.40
2023-02-15T20:21:55.045Z,30.95
2023-02-15T20:24:32.698Z,31.23
2023-02-15T20:27:00.704Z,30.73
2023-02-15T20:29:28.701Z,33.83
2023-02-15T20:32:00.953Z,31.58
2023-02-15T20:34:28.807Z,33.80
2023-02-15T20:36:56.514Z,30.53
2023-02-15T20:39:25.462Z,33.90
2023-02-15T20:41:53.106Z,30.73
2023-02-15T20:44:24.530Z,32.00
2023-02-15T20:46:53.543Z,31.07
2023-02-15T20:49:21.340Z,31.47
2023-02-15T20:51:49.481Z,32.33
2023-02-15T20:54:19.439Z,32.65
2023-02-15T20:56:49.386Z,30.47
2023-02-15T20:59:25.579Z,32.33
2023-02-15T21:01:57.871Z,30.00
2023-02-15T21:04:30.430Z,31.47
2023-02-15T21:06:58.069Z,30.07
2023-02-15T21:09:25.736Z,31.47
2023-02-15T21:11:57.017Z,33.33
2023-02-15T21:14:27.996Z,30.67
2023-02-15T21:16:56.125Z,30.70
2023-02-15T21:19:25.612Z,29.98
2023-02-15T21:21:54.609Z,32.40
2023-02-15T21:24:25.370Z,29.50
2023-02-15T21:26:55.700Z,30.43
2023-02-15T21:29:26.018Z,28.60
2023-02-15T21:31:54.157Z,30.30
2023-02-15T21:34:21.993Z,28.73
2023-02-15T21:36:50.703Z,30.80
2023-02-15T21:39:22.154Z,29.52
2023-02-15T21:42:09.292Z,29.27
2023-02-15T21:44:56.092Z,31.57
2023-02-15T21:47:43.672Z,31.07
2023-02-15T21:50:31.134Z,29.83
2023-02-15T21:52:59.660Z,29.13
2023-02-15T21:55:27.613Z,29.77
2023-02-15T21:57:55.247Z,29.80
2023-02-15T22:00:25.907Z,30.90
2023-02-15T22:02:55.359Z,28.50
2023-02-15T22:05:25.958Z,30.67
2023-02-15T22:07:53.977Z,30.37
2023-02-15T22:10:22.813Z,31.10
2023-02-15T22:12:51.944Z,29.87
2023-02-15T22:15:21.159Z,29.67
2023-02-15T22:17:51.045Z,30.60
2023-02-15T22:20:21.247Z,31.17
2023-02-15T22:22:49.167Z,32.10
2023-02-15T22:25:18.626Z,31.08
2023-02-15T22:27:47.509Z,31.93
2023-02-15T22:30:23.734Z,29.27
2023-02-15T22:32:54.009Z,29.93
2023-02-15T22:35:25.160Z,33.03
2023-02-15T22:37:53.165Z,32.17
2023-02-15T22:40:22.312Z,31.90
2023-02-15T22:42:53.728Z,32.00
2023-02-15T22:45:24.290Z,32.07
2023-02-15T22:47:56.775Z,31.90
2023-02-15T22:50:26.439Z,32.63
2023-02-15T22:52:54.799Z,32.07
2023-02-15T22:55:24.850Z,33.58
2023-02-15T22:57:55.706Z,31.77
2023-02-15T23:00:26.311Z,32.23
2023-02-15T23:02:56.560Z,32.17
2023-02-15T23:05:27.205Z,31.77
2023-02-15T23:07:55.560Z,32.40
2023-02-15T23:10:25.901Z,33.58
2023-02-15T23:13:13.650Z,32.03
2023-02-15T23:15:43.266Z,31.63
2023-02-15T23:18:21.736Z,32.30
2023-02-15T23:20:52.664Z,30.77
2023-02-15T23:23:27.258Z,33.57
2023-02-15T23:25:54.950Z,32.77
2023-02-15T23:28:26.242Z,32.80
2023-02-15T23:30:54.450Z,33.63
2023-02-15T23:33:27.426Z,31.95
2023-02-15T23:35:55.102Z,33.70
2023-02-15T23:38:26.292Z,35.73
2023-02-15T23:41:20.002Z,34.70
2023-02-15T23:43:50.856Z,35.57
2023-02-15T23:46:25.664Z,34.70
2023-02-15T23:48:54.918Z,32.77
2023-02-15T23:51:24.150Z,34.90
2023-02-15T23:53:51.885Z,34.40
2023-02-15T23:56:19.565Z,35.47
2023-02-15T23:58:48.128Z,36.20
